Munising, MI

5:09 PM EDT on July 24, 2016 (GMT -0400)
MesoWest | | Change Station

Elev 609 ft 46.43 °N, 86.84 °W | Updated 39 minutes ago

Mostly Cloudy
Mostly Cloudy
88 °F
Feels Like 100 °F
N
6
Wind Variable Wind from South
Gusts 11.0 mph

Today
High -- | Low -- °F
--% Chance of Precip.
Yesterday
High -- | Low -- °F
Precip. -- in
Pressure 29.76 in
Visibility 10.0 miles
Clouds Scattered Clouds 3600 ft
Scattered Clouds 4400 ft
Mostly Cloudy 5000 ft
Heat Index 100 °F
Dew Point 77 °F
Humidity 70%
Rainfall in
Snow Depth Not available.
6:19 AM 9:26 PM
Waning Gibbous, 73% visible
METAR KSAW 242047Z 25013G19KT 10SM SCT036 SCT044 BKN050 29/21 A2976
Pressure 29.76 in
Visibility 10.0 miles
Clouds Scattered Clouds 3600 ft
Scattered Clouds 4400 ft
Mostly Cloudy 5000 ft
Heat Index 100 °F
Dew Point 77 °F
Humidity 70%
Rainfall in
Snow Depth Not available.
6:19 AM 9:26 PM
Waning Gibbous, 73% visible
METAR KSAW 242047Z 25013G19KT 10SM SCT036 SCT044 BKN050 29/21 A2976

10-Day Weather Forecast

Almanac

Astronomy

Jul. 24, 2016 Rise Set
Actual Time
Civil Twilight
Nautical Twilight
Astronomical Twilight
Moon
Length of Visible Light
Length of Day
Tomorrow will be .
, % of the Moon is Illuminated

Today's Extremes

State Highs State Lows

Community

WunderPhotos

Upload Photos

1,927,190 photos uploaded!

WunderBlog® & News

Nearby

Air Quality

  Air Quality AQ Index Pollutant
Not available.

Snow Depth

Station Depth Elevation

Earthquake Activity

City Distance Mag. Time & Date
Minimum magnitude displayed is 2.5.

Coastal Water Temperatures

Place Temperature

Stations

Nearby Weather Stations

Station Location Temp. Windchill Dew Point Humidity Wind Precip. Elev Updated Type
                   

Watches & Warnings

There are currently no watches in effect.